createdAt,value
2019-01-06T00:02:15.236Z,22.87
2019-01-06T00:05:15.367Z,18.90
2019-01-06T00:08:14.948Z,17.07
2019-01-06T00:11:09.902Z,24.30
2019-01-06T00:14:09.369Z,17.83
2019-01-06T00:17:09.543Z,17.07
2019-01-06T00:20:09.010Z,22.53
2019-01-06T00:23:16.059Z,16.43
2019-01-06T00:26:23.117Z,16.63
2019-01-06T00:29:25.066Z,15.50
2019-01-06T00:32:32.119Z,15.33
2019-01-06T00:35:39.188Z,17.33
2019-01-06T00:38:41.822Z,13.10
2019-01-06T00:41:48.883Z,16.50
2019-01-06T00:44:56.278Z,14.50
2019-01-06T00:48:03.336Z,13.50
2019-01-06T00:51:02.754Z,11.70
2019-01-06T00:54:02.163Z,12.70
2019-01-06T00:57:00.593Z,10.73
2019-01-06T01:00:00.679Z,13.10
2019-01-06T01:03:01.043Z,16.37
2019-01-06T01:06:06.905Z,10.50
2019-01-06T01:09:05.891Z,10.67
2019-01-06T01:12:10.146Z,15.10
2019-01-06T01:15:17.231Z,15.50
2019-01-06T01:18:21.543Z,12.93
2019-01-06T01:21:28.623Z,14.10
2019-01-06T01:24:35.930Z,20.03
2019-01-06T01:28:02.224Z,16.10
2019-01-06T01:31:09.295Z,17.80
2019-01-06T01:34:16.363Z,16.10
2019-01-06T01:37:23.430Z,18.70
2019-01-06T01:40:22.806Z,17.37
2019-01-06T01:43:29.876Z,17.07
2019-01-06T01:46:31.339Z,16.87
2019-01-06T01:49:38.679Z,14.60
2019-01-06T01:52:38.913Z,17.63
2019-01-06T01:55:37.649Z,19.70
2019-01-06T01:58:40.173Z,19.90
2019-01-06T02:01:39.603Z,19.10
2019-01-06T02:04:39.559Z,17.57
2019-01-06T02:07:39.015Z,13.57
2019-01-06T02:10:33.413Z,17.23
2019-01-06T02:13:33.090Z,15.30
2019-01-06T02:16:33.751Z,18.53
2019-01-06T02:19:33.407Z,18.60
2019-01-06T02:22:38.679Z,16.23
2019-01-06T02:25:38.930Z,22.77
2019-01-06T02:28:39.307Z,22.17
2019-01-06T02:31:29.947Z,21.30
2019-01-06T02:34:29.995Z,25.00
2019-01-06T02:37:30.019Z,22.13
2019-01-06T02:40:22.930Z,21.80
2019-01-06T02:43:22.529Z,19.10
2019-01-06T02:46:28.009Z,23.10
2019-01-06T02:49:27.115Z,21.90
2019-01-06T02:52:27.088Z,22.90
2019-01-06T02:55:26.654Z,23.87
2019-01-06T02:58:26.956Z,23.90
2019-01-06T03:01:15.143Z,17.83
2019-01-06T03:04:02.982Z,19.80
2019-01-06T03:07:10.292Z,19.33
2019-01-06T03:10:17.348Z,15.70
2019-01-06T03:13:24.423Z,15.47
2019-01-06T03:16:31.479Z,16.03
2019-01-06T03:19:38.551Z,13.10
2019-01-06T03:22:42.414Z,14.83
2019-01-06T03:25:46.090Z,14.30
2019-01-06T03:28:44.594Z,14.30
2019-01-06T03:31:42.804Z,16.40
2019-01-06T03:34:50.105Z,16.80
2019-01-06T03:37:57.177Z,14.50
2019-01-06T03:41:04.239Z,12.20
2019-01-06T03:44:04.379Z,10.83
2019-01-06T03:47:11.443Z,13.10
2019-01-06T03:50:12.024Z,15.80
2019-01-06T03:53:11.981Z,14.20
2019-01-06T03:56:11.695Z,20.17
2019-01-06T03:59:06.728Z,13.93
2019-01-06T04:02:06.852Z,17.67
2019-01-06T04:05:09.362Z,15.13
2019-01-06T04:08:09.019Z,15.60
2019-01-06T04:11:15.107Z,18.40
2019-01-06T04:14:11.442Z,15.93
2019-01-06T04:17:17.186Z,14.67
2019-01-06T04:20:16.941Z,16.17
2019-01-06T04:23:17.282Z,20.20
2019-01-06T04:26:16.738Z,17.07
2019-01-06T04:29:17.046Z,21.00
2019-01-06T04:32:16.936Z,27.67
2019-01-06T04:35:16.947Z,21.83
2019-01-06T04:38:16.984Z,28.70
2019-01-06T04:41:16.887Z,19.00
2019-01-06T04:44:16.436Z,16.90
2019-01-06T04:47:22.159Z,23.33
2019-01-06T04:50:24.732Z,16.90
2019-01-06T04:53:24.164Z,20.37
2019-01-06T04:56:23.637Z,29.00
2019-01-06T04:59:23.883Z,23.90
2019-01-06T05:05:45.791Z,34.47
2019-01-06T05:08:45.976Z,28.90
2019-01-06T05:11:36.338Z,25.27
2019-01-06T05:14:35.914Z,31.77
2019-01-06T05:17:39.045Z,25.80
2019-01-06T05:20:44.781Z,36.73
2019-01-06T05:23:45.098Z,29.40
2019-01-06T05:26:44.631Z,27.20
2019-01-06T05:29:47.374Z,24.73
2019-01-06T05:32:51.858Z,31.73
2019-01-06T05:35:52.018Z,23.60
2019-01-06T05:38:51.657Z,32.53
2019-01-06T05:41:51.619Z,27.57
2019-01-06T05:44:54.823Z,28.27
2019-01-06T05:47:55.054Z,26.00
2019-01-06T05:50:55.271Z,32.60
2019-01-06T05:53:55.111Z,32.30
2019-01-06T05:57:01.360Z,31.00
2019-01-06T06:00:02.207Z,31.47
2019-01-06T06:03:08.421Z,31.47
2019-01-06T06:06:07.999Z,27.63
2019-01-06T06:09:07.797Z,27.27
2019-01-06T06:12:11.383Z,24.03
2019-01-06T06:18:19.356Z,26.83
2019-01-06T06:21:26.434Z,27.43
2019-01-06T06:24:33.507Z,21.03
2019-01-06T06:27:30.574Z,23.53
2019-01-06T06:30:37.867Z,18.40
2019-01-06T06:33:44.946Z,20.30
2019-01-06T06:36:52.258Z,19.90
2019-01-06T06:39:48.426Z,23.80
2019-01-06T06:42:46.408Z,19.80
2019-01-06T06:45:53.470Z,27.73
2019-01-06T06:48:45.357Z,20.40
2019-01-06T06:51:33.231Z,20.37
2019-01-06T06:54:40.299Z,18.83
2019-01-06T06:58:06.595Z,24.70
2019-01-06T07:01:15.952Z,18.53
2019-01-06T07:04:23.026Z,23.00
2019-01-06T07:07:30.098Z,20.37
2019-01-06T07:10:37.154Z,23.90
2019-01-06T07:13:44.511Z,20.00
2019-01-06T07:17:10.794Z,22.83
2019-01-06T07:20:17.859Z,19.60
2019-01-06T07:23:25.170Z,26.10
2019-01-06T07:26:27.162Z,19.40
2019-01-06T07:29:34.248Z,24.60
2019-01-06T07:32:41.319Z,18.30
2019-01-06T07:35:48.377Z,17.63
2019-01-06T07:38:55.460Z,20.23
2019-01-06T07:42:02.529Z,17.53
2019-01-06T07:45:01.125Z,20.97
2019-01-06T07:47:59.170Z,22.20
2019-01-06T07:51:02.985Z,15.93
2019-01-06T07:54:01.383Z,20.50
2019-01-06T07:56:56.580Z,18.60
2019-01-06T07:59:54.034Z,23.90
2019-01-06T08:02:54.068Z,24.63
2019-01-06T08:05:53.451Z,37.10
2019-01-06T08:08:52.920Z,37.20
2019-01-06T08:11:52.559Z,27.13
2019-01-06T08:14:52.916Z,30.33
2019-01-06T08:17:53.319Z,29.73
2019-01-06T08:20:47.843Z,28.03
2019-01-06T08:23:47.650Z,30.90
2019-01-06T08:26:47.878Z,27.40
2019-01-06T08:29:48.107Z,25.83
2019-01-06T08:32:48.559Z,29.70
2019-01-06T08:35:48.670Z,27.73
2019-01-06T08:38:49.008Z,29.27
2019-01-06T08:45:11.543Z,25.30
2019-01-06T08:48:11.705Z,27.67
2019-01-06T08:51:03.217Z,23.90
2019-01-06T08:54:09.098Z,29.30
2019-01-06T08:57:08.883Z,31.33
2019-01-06T09:00:08.011Z,29.40
2019-01-06T09:03:03.495Z,34.47
2019-01-06T09:06:03.533Z,31.23
2019-01-06T09:08:57.198Z,37.13
2019-01-06T09:11:54.683Z,45.27
2019-01-06T09:14:57.769Z,34.30
2019-01-06T09:17:57.230Z,36.13
2019-01-06T09:20:57.388Z,40.77
2019-01-06T09:23:54.266Z,39.70
2019-01-06T09:26:59.725Z,39.20
2019-01-06T09:30:02.490Z,37.83
2019-01-06T09:32:57.338Z,40.27
2019-01-06T09:35:57.766Z,39.37
2019-01-06T09:38:49.221Z,37.80
2019-01-06T09:41:45.241Z,39.27
2019-01-06T09:44:45.911Z,45.67
2019-01-06T09:47:46.034Z,42.60
2019-01-06T09:50:45.563Z,35.03
2019-01-06T09:53:39.079Z,40.13
2019-01-06T09:56:44.327Z,39.20
2019-01-06T09:59:44.315Z,38.73
2019-01-06T10:02:44.551Z,46.47
2019-01-06T10:05:44.667Z,52.43
2019-01-06T10:08:44.811Z,44.67
2019-01-06T10:11:47.891Z,38.17
2019-01-06T10:14:49.678Z,54.90
2019-01-06T10:17:49.802Z,42.77
2019-01-06T10:20:50.192Z,50.77
2019-01-06T10:23:50.235Z,45.00
2019-01-06T10:26:49.749Z,39.83
2019-01-06T10:29:47.149Z,45.43
2019-01-06T10:32:41.856Z,46.90
2019-01-06T10:35:29.966Z,51.90
2019-01-06T10:38:37.019Z,48.47
2019-01-06T10:41:44.118Z,42.63
2019-01-06T10:44:51.695Z,45.70
2019-01-06T10:47:58.787Z,41.83
2019-01-06T10:50:58.542Z,47.20
2019-01-06T10:53:52.531Z,41.00
2019-01-06T10:56:52.016Z,33.60
2019-01-06T10:59:55.276Z,33.80
2019-01-06T11:02:55.143Z,32.73
2019-01-06T11:05:55.459Z,33.03
2019-01-06T11:08:55.856Z,29.90
2019-01-06T11:11:58.716Z,27.53
2019-01-06T11:15:04.999Z,29.90
2019-01-06T11:18:04.849Z,31.37
2019-01-06T11:21:01.119Z,24.60
2019-01-06T11:24:00.499Z,23.57
2019-01-06T11:27:00.160Z,27.47
2019-01-06T11:29:59.548Z,24.03
2019-01-06T11:32:59.103Z,23.00
2019-01-06T11:35:58.602Z,28.27
2019-01-06T11:42:09.799Z,21.57
2019-01-06T11:45:09.633Z,24.97
2019-01-06T11:48:09.184Z,25.37
2019-01-06T11:51:06.974Z,31.07
2019-01-06T11:54:07.036Z,25.03
2019-01-06T11:57:13.613Z,27.40
2019-01-06T12:00:11.954Z,27.93
2019-01-06T12:03:11.740Z,33.40
2019-01-06T12:06:17.887Z,28.07
2019-01-06T12:09:10.286Z,25.20
2019-01-06T12:12:04.804Z,27.67
2019-01-06T12:15:00.514Z,34.40
2019-01-06T12:18:00.628Z,28.47
2019-01-06T12:21:01.186Z,26.70
2019-01-06T12:27:06.755Z,29.73
2019-01-06T12:30:03.069Z,30.07
2019-01-06T12:33:03.170Z,28.77
2019-01-06T12:36:05.835Z,31.60
2019-01-06T12:39:05.403Z,26.53
2019-01-06T12:42:02.534Z,26.80
2019-01-06T12:45:02.915Z,32.33
2019-01-06T12:48:03.158Z,32.67
2019-01-06T12:51:02.983Z,33.97
2019-01-06T12:54:03.537Z,29.53
2019-01-06T12:57:03.632Z,34.23
2019-01-06T13:00:03.747Z,23.50
2019-01-06T13:02:51.592Z,20.40
2019-01-06T13:05:58.650Z,19.30
2019-01-06T13:09:14.458Z,13.50
2019-01-06T13:12:14.527Z,13.50
2019-01-06T13:15:14.268Z,10.83
2019-01-06T13:18:14.483Z,13.53
2019-01-06T13:21:17.587Z,9.37
2019-01-06T13:24:17.476Z,8.27
2019-01-06T13:27:18.781Z,7.77
2019-01-06T13:30:26.571Z,9.30
2019-01-06T13:33:33.644Z,11.83
2019-01-06T13:36:40.687Z,9.70
2019-01-06T13:39:42.896Z,10.13
2019-01-06T13:42:50.208Z,11.30
2019-01-06T13:45:51.555Z,11.63
2019-01-06T13:48:58.620Z,11.00
2019-01-06T13:52:01.906Z,9.07
2019-01-06T13:55:02.274Z,10.53
2019-01-06T13:58:01.701Z,12.17
2019-01-06T14:00:56.051Z,10.63
2019-01-06T14:03:48.902Z,10.60
2019-01-06T14:06:46.450Z,10.17
2019-01-06T14:09:44.046Z,7.37
2019-01-06T14:12:44.380Z,10.23
2019-01-06T14:15:44.078Z,9.40
2019-01-06T14:18:31.895Z,13.10
2019-01-06T14:21:38.971Z,8.73
2019-01-06T14:24:47.881Z,7.50
2019-01-06T14:27:55.080Z,15.33
2019-01-06T14:31:02.161Z,17.13
2019-01-06T14:34:09.215Z,10.70
2019-01-06T14:37:16.650Z,6.97
2019-01-06T14:40:23.818Z,4.90
2019-01-06T14:43:30.876Z,6.70
2019-01-06T14:46:38.175Z,6.80
2019-01-06T14:49:45.275Z,6.93
2019-01-06T14:52:46.631Z,7.00
2019-01-06T14:55:53.770Z,11.77
2019-01-06T14:59:00.905Z,16.70
2019-01-06T15:02:07.965Z,57.40
2019-01-06T15:05:15.279Z,30.03
2019-01-06T15:08:22.330Z,18.67
2019-01-06T15:11:22.778Z,12.93
2019-01-06T15:14:29.839Z,24.53
2019-01-06T15:17:36.916Z,9.33
2019-01-06T15:20:43.982Z,7.57
2019-01-06T15:23:51.290Z,8.10
2019-01-06T15:26:58.352Z,6.67
2019-01-06T15:30:05.422Z,9.47
2019-01-06T15:33:04.325Z,5.87
2019-01-06T15:36:11.707Z,8.07
2019-01-06T15:39:19.006Z,7.63
2019-01-06T15:42:26.574Z,7.50
2019-01-06T15:45:33.638Z,7.17
2019-01-06T15:48:40.718Z,8.23
2019-01-06T15:51:40.107Z,6.87
2019-01-06T15:54:37.308Z,7.67
2019-01-06T15:57:37.153Z,7.13
2019-01-06T16:00:37.075Z,9.13
2019-01-06T16:03:39.683Z,6.40
2019-01-06T16:06:39.165Z,7.23
2019-01-06T16:09:39.367Z,7.60
2019-01-06T16:12:39.023Z,8.50
2019-01-06T16:15:28.659Z,10.07
2019-01-06T16:18:34.377Z,11.13
2019-01-06T16:21:28.805Z,8.40
2019-01-06T16:24:29.166Z,10.53
2019-01-06T16:27:18.131Z,10.50
2019-01-06T16:30:08.624Z,9.30
2019-01-06T16:33:11.634Z,10.30
2019-01-06T16:36:16.758Z,13.23
2019-01-06T16:39:16.395Z,9.90
2019-01-06T16:42:16.121Z,6.97
2019-01-06T16:45:15.101Z,12.27
2019-01-06T16:48:22.427Z,9.33
2019-01-06T16:51:28.559Z,10.23
2019-01-06T16:54:23.925Z,9.10
2019-01-06T16:57:20.170Z,9.03
2019-01-06T17:00:20.143Z,11.83
2019-01-06T17:03:19.834Z,9.87
2019-01-06T17:06:13.245Z,9.40
2019-01-06T17:09:20.319Z,7.93
2019-01-06T17:12:27.405Z,8.27
2019-01-06T17:15:34.471Z,8.70
2019-01-06T17:18:41.542Z,9.07
2019-01-06T17:21:48.612Z,6.93
2019-01-06T17:24:55.918Z,11.83
2019-01-06T17:28:03.059Z,8.97
2019-01-06T17:31:10.120Z,7.17
2019-01-06T17:34:17.187Z,7.07
2019-01-06T17:37:24.299Z,8.97
2019-01-06T17:40:31.361Z,8.23
2019-01-06T17:43:38.402Z,8.20
2019-01-06T17:46:45.456Z,8.13
2019-01-06T17:49:52.501Z,7.50
2019-01-06T17:52:52.539Z,8.10
2019-01-06T17:55:52.187Z,9.57
2019-01-06T17:58:51.963Z,10.60
2019-01-06T18:01:51.538Z,9.97
2019-01-06T18:04:51.414Z,8.20
2019-01-06T18:07:51.652Z,8.47
2019-01-06T18:10:32.857Z,14.23
2019-01-06T18:13:36.099Z,8.53
2019-01-06T18:16:35.911Z,8.40
2019-01-06T18:19:36.222Z,10.00
2019-01-06T18:22:36.653Z,11.60
2019-01-06T18:25:38.146Z,10.73
2019-01-06T18:28:38.447Z,12.37
2019-01-06T18:31:37.958Z,11.77
2019-01-06T18:34:38.287Z,13.60
2019-01-06T18:37:38.698Z,8.40
2019-01-06T18:40:38.125Z,8.17
2019-01-06T18:43:38.049Z,6.23
2019-01-06T18:46:37.986Z,4.27
2019-01-06T18:49:37.475Z,4.63
2019-01-06T18:52:37.858Z,3.50
2019-01-06T18:55:35.983Z,4.50
2019-01-06T18:58:30.565Z,3.60
2019-01-06T19:01:34.425Z,3.67
2019-01-06T19:04:38.375Z,4.50
2019-01-06T19:07:40.685Z,4.63
2019-01-06T19:10:40.255Z,7.77
2019-01-06T19:13:39.612Z,5.83
2019-01-06T19:16:33.470Z,5.23
2019-01-06T19:19:35.724Z,5.50
2019-01-06T19:22:34.831Z,6.10
2019-01-06T19:25:35.480Z,5.77
2019-01-06T19:28:34.867Z,5.80
2019-01-06T19:31:34.448Z,10.30
2019-01-06T19:34:33.981Z,7.93
2019-01-06T19:37:33.940Z,6.80
2019-01-06T19:40:36.618Z,11.23
2019-01-06T19:43:40.536Z,5.30
2019-01-06T19:46:40.646Z,6.17
2019-01-06T19:49:34.180Z,5.23
2019-01-06T19:52:34.139Z,5.97
2019-01-06T19:55:33.566Z,5.70
2019-01-06T19:58:33.415Z,6.83
2019-01-06T20:01:26.621Z,5.67
2019-01-06T20:04:26.301Z,3.87
2019-01-06T20:07:26.355Z,4.83
2019-01-06T20:10:25.673Z,6.87
2019-01-06T20:13:25.612Z,7.93
2019-01-06T20:16:25.514Z,7.50
2019-01-06T20:19:23.466Z,5.03
2019-01-06T20:22:23.480Z,6.60
2019-01-06T20:25:23.440Z,7.57
2019-01-06T20:28:19.747Z,7.03
2019-01-06T20:31:18.443Z,4.40
2019-01-06T20:34:20.604Z,4.77
2019-01-06T20:37:19.994Z,7.23
2019-01-06T20:40:18.394Z,7.67
2019-01-06T20:43:08.498Z,5.63
2019-01-06T20:46:14.566Z,4.70
2019-01-06T20:49:14.890Z,8.07
2019-01-06T20:52:15.140Z,5.53
2019-01-06T20:55:15.613Z,6.40
2019-01-06T20:58:15.672Z,6.50
2019-01-06T21:01:15.202Z,6.30
2019-01-06T21:04:14.919Z,7.50
2019-01-06T21:07:17.882Z,8.77
2019-01-06T21:10:11.454Z,10.33
2019-01-06T21:13:11.522Z,7.87
2019-01-06T21:16:11.519Z,8.90
2019-01-06T21:19:11.830Z,8.37
2019-01-06T21:22:11.773Z,9.20
2019-01-06T21:25:12.214Z,13.60
2019-01-06T21:28:12.039Z,10.57
2019-01-06T21:31:12.028Z,8.30
2019-01-06T21:34:14.595Z,9.07
2019-01-06T21:37:14.580Z,6.67
2019-01-06T21:40:18.149Z,8.67
2019-01-06T21:43:18.406Z,7.80
2019-01-06T21:46:17.828Z,7.70
2019-01-06T21:49:18.127Z,6.70
2019-01-06T21:52:18.137Z,5.03
2019-01-06T21:55:18.288Z,4.30
2019-01-06T21:58:06.201Z,4.57
2019-01-06T22:01:13.238Z,4.67
2019-01-06T22:04:20.312Z,4.93
2019-01-06T22:07:27.367Z,5.23
2019-01-06T22:10:34.427Z,7.37
2019-01-06T22:13:41.752Z,7.17
2019-01-06T22:16:48.813Z,7.53
2019-01-06T22:19:55.872Z,6.80
2019-01-06T22:23:03.182Z,6.03
2019-01-06T22:26:10.491Z,6.43
2019-01-06T22:29:17.562Z,14.20
2019-01-06T22:32:22.587Z,7.90
2019-01-06T22:35:29.651Z,9.17
2019-01-06T22:38:36.709Z,5.83
2019-01-06T22:41:43.763Z,9.23
2019-01-06T22:44:51.074Z,7.13
2019-01-06T22:47:58.123Z,10.37
2019-01-06T22:50:58.501Z,10.60
2019-01-06T22:54:01.034Z,8.20
2019-01-06T22:57:01.357Z,8.27
2019-01-06T23:00:01.096Z,11.13
2019-01-06T23:03:06.624Z,9.63
2019-01-06T23:05:59.207Z,8.73
2019-01-06T23:08:49.920Z,10.50
2019-01-06T23:11:42.549Z,9.80
2019-01-06T23:14:42.364Z,9.77
2019-01-06T23:17:42.961Z,11.73
2019-01-06T23:20:42.727Z,9.67
2019-01-06T23:23:42.250Z,14.23
2019-01-06T23:26:42.475Z,12.80
2019-01-06T23:29:42.450Z,15.10
2019-01-06T23:32:48.885Z,18.83
2019-01-06T23:35:48.629Z,13.60
2019-01-06T23:38:48.345Z,13.07
2019-01-06T23:41:47.837Z,15.13
2019-01-06T23:44:47.566Z,14.73
2019-01-06T23:47:40.542Z,12.80
2019-01-06T23:50:40.619Z,15.30
2019-01-06T23:53:40.886Z,11.80
2019-01-06T23:56:41.122Z,10.83
2019-01-06T23:59:40.459Z,14.00
